Suakin — ZCIL — position and weather

sailwx.info

Track history (hours):
 
Tides and Currents Weather Stations Pressure Air Temp Water Temp Dewpoint Dewpoint Depression Visibility Wind Speed Wind Dir Waves Ship Positions

Suakin

Last reported at 2017-Jul-28 17:43 UTC. Time now 2017-Aug-18 16:09 UTC.
Position N 37°47' E 020°54'.
Warning: this ship's position is 20 days out of date.

Length 37 m; draft 2.5 m.

Type: Pleasure craft. MMSI: 319897000.

Date/timePositionNaut miles runAvg speedWind from/ knotsBaromVisibWave heightAir tempDewpointWater temp
2017-Jul-28 17:43N 37°47' E 020°54'  
2017-Jul-22 07:33N 37°55' E 023°01'2 8.4
2017-Jul-22 07:16N 37°54' E 023°04'311.0
2017-Jul-22 06:58N 37°52' E 023°07'610.8
2017-Jul-22 06:28N 37°51' E 023°14'511.0
2017-Jul-22 06:00N 37°50' E 023°20'510.9
2017-Jul-22 05:30N 37°48' E 023°27'510.8
2017-Jul-22 05:00N 37°47' E 023°34'2 4.1
2017-Jul-22 04:25N 37°45' E 023°33'0 0.0
2017-Jul-22 03:58N 37°45' E 023°33'0 0.0
2017-Jul-22 03:28N 37°45' E 023°33'0 0.0
2017-Jul-22 02:58N 37°45' E 023°33'0 0.0
2017-Jul-22 02:28N 37°45' E 023°33'0 0.0
2017-Jul-22 01:58N 37°45' E 023°33'0 0.0
2017-Jul-22 01:28N 37°45' E 023°33'0 0.0
2017-Jul-22 00:58N 37°45' E 023°33'0 0.0
2017-Jul-22 00:28N 37°45' E 023°33'0 0.0
2017-Jul-21 23:58N 37°45' E 023°33'0 0.0
2017-Jul-21 23:28N 37°45' E 023°33'0 0.0
2017-Jul-21 22:58N 37°45' E 023°33'0 0.0
2017-Jul-21 22:28N 37°45' E 023°33'0 0.0
2017-Jul-21 21:58N 37°45' E 023°33'0 0.0
2017-Jul-21 21:28N 37°45' E 023°33'0 0.0
2017-Jul-21 20:58N 37°45' E 023°33'0 0.0
2017-Jul-21 20:28N 37°45' E 023°33'0 0.0
2017-Jul-21 19:58N 37°45' E 023°33'0 0.0
2017-Jul-21 19:25N 37°45' E 023°33'0 0.0
2017-Jul-21 18:58N 37°45' E 023°33'0 0.0
2017-Jul-21 18:28N 37°45' E 023°33'0 0.0
2017-Jul-21 17:52N 37°45' E 023°33'0 0.0
2017-Jul-21 17:28N 37°45' E 023°33'0 0.0
2017-Jul-21 16:55N 37°45' E 023°33'0 0.0
2017-Jul-21 16:28N 37°45' E 023°33'0 0.0
2017-Jul-21 15:49N 37°45' E 023°33'0 0.0
2017-Jul-21 15:28N 37°45' E 023°33'0 0.0
2017-Jul-21 14:55N 37°45' E 023°33'0 0.0
2017-Jul-21 14:30N 37°45' E 023°33'2 4.0
2017-Jul-21 14:00N 37°44' E 023°35'611.0
2017-Jul-21 13:30N 37°46' E 023°42'610.5
2017-Jul-21 12:59N 37°48' E 023°48'1 1.2
2017-Jul-21 12:25N 37°49' E 023°48'0 0.0
2017-Jul-21 11:55N 37°49' E 023°48'0 0.0
2017-Jul-21 09:19N 37°49' E 023°48'0 0.0
2017-Jul-21 07:37N 37°49' E 023°48'0 0.1
2017-Jul-21 07:29N 37°49' E 023°48'3 5.4
2017-Jul-21 06:59N 37°46' E 023°49'511.1
2017-Jul-21 06:30N 37°42' E 023°53'  
Track history (hours):
 
Tides and Currents Weather Stations Pressure Air Temp Water Temp Dewpoint Dewpoint Depression Visibility Wind Speed Wind Dir Waves Ship Positions

Suakin

Last reported at 2017-Jul-28 17:43 UTC. Time now 2017-Aug-18 16:09 UTC.
Position N 37°47' E 020°54'.
Warning: this ship's position is 20 days out of date.

Length 37 m; draft 2.5 m.

Type: Pleasure craft. MMSI: 319897000.

Date/timePositionNaut miles runAvg speedWind from/ knotsBaromVisibWave heightAir tempDewpointWater temp
2017-Jul-28 17:43N 37°47' E 020°54'  
2017-Jul-22 07:33N 37°55' E 023°01'2 8.4
2017-Jul-22 07:16N 37°54' E 023°04'311.0
2017-Jul-22 06:58N 37°52' E 023°07'610.8
2017-Jul-22 06:28N 37°51' E 023°14'511.0
2017-Jul-22 06:00N 37°50' E 023°20'510.9
2017-Jul-22 05:30N 37°48' E 023°27'510.8
2017-Jul-22 05:00N 37°47' E 023°34'2 4.1
2017-Jul-22 04:25N 37°45' E 023°33'0 0.0
2017-Jul-22 03:58N 37°45' E 023°33'0 0.0
2017-Jul-22 03:28N 37°45' E 023°33'0 0.0
2017-Jul-22 02:58N 37°45' E 023°33'0 0.0
2017-Jul-22 02:28N 37°45' E 023°33'0 0.0
2017-Jul-22 01:58N 37°45' E 023°33'0 0.0
2017-Jul-22 01:28N 37°45' E 023°33'0 0.0
2017-Jul-22 00:58N 37°45' E 023°33'0 0.0
2017-Jul-22 00:28N 37°45' E 023°33'0 0.0
2017-Jul-21 23:58N 37°45' E 023°33'0 0.0
2017-Jul-21 23:28N 37°45' E 023°33'0 0.0
2017-Jul-21 22:58N 37°45' E 023°33'0 0.0
2017-Jul-21 22:28N 37°45' E 023°33'0 0.0
2017-Jul-21 21:58N 37°45' E 023°33'0 0.0
2017-Jul-21 21:28N 37°45' E 023°33'0 0.0
2017-Jul-21 20:58N 37°45' E 023°33'0 0.0
2017-Jul-21 20:28N 37°45' E 023°33'0 0.0
2017-Jul-21 19:58N 37°45' E 023°33'0 0.0
2017-Jul-21 19:25N 37°45' E 023°33'0 0.0
2017-Jul-21 18:58N 37°45' E 023°33'0 0.0
2017-Jul-21 18:28N 37°45' E 023°33'0 0.0
2017-Jul-21 17:52N 37°45' E 023°33'0 0.0
2017-Jul-21 17:28N 37°45' E 023°33'0 0.0
2017-Jul-21 16:55N 37°45' E 023°33'0 0.0
2017-Jul-21 16:28N 37°45' E 023°33'0 0.0
2017-Jul-21 15:49N 37°45' E 023°33'0 0.0
2017-Jul-21 15:28N 37°45' E 023°33'0 0.0
2017-Jul-21 14:55N 37°45' E 023°33'0 0.0
2017-Jul-21 14:30N 37°45' E 023°33'2 4.0
2017-Jul-21 14:00N 37°44' E 023°35'611.0
2017-Jul-21 13:30N 37°46' E 023°42'610.5
2017-Jul-21 12:59N 37°48' E 023°48'1 1.2
2017-Jul-21 12:25N 37°49' E 023°48'0 0.0
2017-Jul-21 11:55N 37°49' E 023°48'0 0.0
2017-Jul-21 09:19N 37°49' E 023°48'0 0.0
2017-Jul-21 07:37N 37°49' E 023°48'0 0.1
2017-Jul-21 07:29N 37°49' E 023°48'3 5.4
2017-Jul-21 06:59N 37°46' E 023°49'511.1
2017-Jul-21 06:30N 37°42' E 023°53'  

Dump ship's entire track history